createdAt,value
2022-11-07T00:01:50.527Z,9.98
2022-11-07T00:04:17.398Z,10.35
2022-11-07T00:06:44.159Z,10.40
2022-11-07T00:09:10.818Z,10.02
2022-11-07T00:11:37.430Z,10.15
2022-11-07T00:14:04.102Z,10.48
2022-11-07T00:16:31.895Z,10.50
2022-11-07T00:18:58.490Z,9.83
2022-11-07T00:21:25.063Z,10.52
2022-11-07T00:23:51.645Z,10.45
2022-11-07T00:26:18.240Z,10.25
2022-11-07T00:28:45.299Z,9.96
2022-11-07T00:31:13.313Z,10.53
2022-11-07T00:33:41.048Z,10.36
2022-11-07T00:36:08.297Z,10.60
2022-11-07T00:38:35.429Z,10.61
2022-11-07T00:41:05.221Z,10.49
2022-11-07T00:43:32.911Z,10.54
2022-11-07T00:46:05.188Z,10.50
2022-11-07T00:48:35.000Z,10.49
2022-11-07T00:51:16.435Z,10.66
2022-11-07T00:53:43.105Z,10.29
2022-11-07T00:56:14.953Z,10.64
2022-11-07T00:58:42.819Z,9.90
2022-11-07T01:01:11.962Z,10.74
2022-11-07T01:03:57.712Z,10.62
2022-11-07T01:06:27.209Z,10.40
2022-11-07T01:08:54.966Z,10.20
2022-11-07T01:11:21.711Z,10.68
2022-11-07T01:13:48.297Z,10.24
2022-11-07T01:16:15.279Z,10.47
2022-11-07T01:18:44.529Z,10.12
2022-11-07T01:21:16.242Z,10.12
2022-11-07T01:24:03.203Z,10.27
2022-11-07T01:31:18.434Z,10.10
2022-11-07T01:33:49.092Z,10.13
2022-11-07T01:36:17.934Z,10.24
2022-11-07T01:38:48.595Z,10.26
2022-11-07T01:41:27.874Z,10.77
2022-11-07T01:44:23.636Z,10.66
2022-11-07T01:46:56.894Z,10.57
2022-11-07T01:49:28.957Z,10.76
2022-11-07T01:52:04.349Z,10.49
2022-11-07T01:54:41.749Z,10.27
2022-11-07T01:57:20.874Z,10.44
2022-11-07T01:59:50.813Z,10.13
2022-11-07T02:02:17.954Z,10.49
2022-11-07T02:04:44.992Z,10.76
2022-11-07T02:07:18.337Z,10.70
2022-11-07T02:09:45.441Z,10.34
2022-11-07T02:12:13.173Z,10.12
2022-11-07T02:14:42.227Z,10.47
2022-11-07T02:17:10.458Z,10.54
2022-11-07T02:19:43.284Z,10.47
2022-11-07T02:22:09.814Z,10.65
2022-11-07T02:24:38.746Z,10.07
2022-11-07T02:27:13.093Z,9.91
2022-11-07T02:29:42.523Z,9.89
2022-11-07T02:32:11.370Z,9.78
2022-11-07T02:34:38.564Z,10.50
2022-11-07T02:37:17.448Z,10.48
2022-11-07T02:39:43.987Z,10.39
2022-11-07T02:42:10.665Z,10.04
2022-11-07T02:44:37.438Z,10.05
2022-11-07T02:47:04.162Z,9.69
2022-11-07T02:49:30.796Z,10.26
2022-11-07T02:51:57.389Z,10.20
2022-11-07T02:54:23.908Z,10.20
2022-11-07T02:56:50.600Z,10.26
2022-11-07T02:59:26.945Z,10.32
2022-11-07T03:01:57.159Z,9.93
2022-11-07T03:04:24.774Z,10.28
2022-11-07T03:06:51.698Z,10.27
2022-11-07T03:09:18.222Z,10.27
2022-11-07T03:11:44.806Z,9.99
2022-11-07T03:14:11.391Z,10.09
2022-11-07T03:16:38.471Z,9.99
2022-11-07T03:19:05.196Z,9.87
2022-11-07T03:21:32.418Z,10.30
2022-11-07T03:23:58.992Z,9.43
2022-11-07T03:26:25.565Z,10.29
2022-11-07T03:28:52.259Z,9.82
2022-11-07T03:31:18.937Z,10.06
2022-11-07T03:33:45.545Z,9.96
2022-11-07T03:36:12.494Z,9.59
2022-11-07T03:38:39.071Z,9.89
2022-11-07T03:41:05.805Z,9.46
2022-11-07T03:43:32.679Z,10.25
2022-11-07T03:46:03.920Z,9.67
2022-11-07T03:48:33.461Z,10.27
2022-11-07T03:51:00.100Z,9.99
2022-11-07T03:53:28.595Z,10.01
2022-11-07T03:55:56.183Z,9.93
2022-11-07T03:58:25.833Z,10.22
2022-11-07T04:00:52.725Z,9.71
2022-11-07T04:03:19.297Z,9.66
2022-11-07T04:05:45.897Z,9.76
2022-11-07T04:08:12.516Z,10.01
2022-11-07T04:10:39.200Z,10.12
2022-11-07T04:13:24.505Z,9.93
2022-11-07T04:16:14.934Z,9.92
2022-11-07T04:18:43.948Z,9.96
2022-11-07T04:21:10.770Z,9.97
2022-11-07T04:23:40.026Z,10.07
2022-11-07T04:26:25.293Z,9.43
2022-11-07T04:28:51.917Z,9.93
2022-11-07T04:31:18.488Z,9.64
2022-11-07T04:33:46.121Z,9.49
2022-11-07T04:36:12.914Z,9.31
2022-11-07T04:38:42.188Z,9.90
2022-11-07T04:41:22.381Z,9.72
2022-11-07T04:43:49.069Z,9.96
2022-11-07T04:46:16.608Z,9.75
2022-11-07T04:48:44.256Z,9.90
2022-11-07T04:51:19.815Z,9.75
2022-11-07T04:53:46.460Z,9.82
2022-11-07T04:56:13.131Z,9.74
2022-11-07T04:58:39.672Z,9.78
2022-11-07T05:01:06.250Z,9.71
2022-11-07T05:03:36.232Z,9.74
2022-11-07T05:06:06.098Z,9.72
2022-11-07T05:08:32.683Z,9.30
2022-11-07T05:10:59.207Z,9.57
2022-11-07T05:13:25.835Z,9.55
2022-11-07T05:15:55.424Z,9.46
2022-11-07T05:18:25.092Z,9.21
2022-11-07T05:20:55.911Z,9.23
2022-11-07T05:23:22.662Z,8.93
2022-11-07T05:25:59.353Z,8.40
2022-11-07T05:28:37.008Z,8.35
2022-11-07T05:31:09.439Z,9.08
2022-11-07T05:33:47.362Z,8.43
2022-11-07T05:36:19.112Z,8.97
2022-11-07T05:38:48.355Z,8.47
2022-11-07T05:41:16.605Z,8.55
2022-11-07T05:43:43.457Z,8.74
2022-11-07T05:46:10.769Z,8.77
2022-11-07T05:48:38.034Z,8.45
2022-11-07T05:51:06.992Z,8.66
2022-11-07T05:53:34.501Z,8.56
2022-11-07T05:56:01.103Z,8.46
2022-11-07T05:58:27.665Z,8.42
2022-11-07T06:00:54.246Z,8.38
2022-11-07T06:03:21.161Z,7.85
2022-11-07T06:05:48.226Z,8.57
2022-11-07T06:08:15.371Z,8.46
2022-11-07T06:10:43.542Z,8.04
2022-11-07T06:13:15.667Z,7.98
2022-11-07T06:15:44.731Z,8.40
2022-11-07T06:18:19.999Z,8.21
2022-11-07T06:20:47.787Z,8.41
2022-11-07T06:23:16.880Z,8.58
2022-11-07T06:25:47.276Z,8.61
2022-11-07T06:28:18.223Z,8.09
2022-11-07T06:30:47.623Z,8.56
2022-11-07T06:33:17.348Z,8.00
2022-11-07T06:35:53.131Z,8.09
2022-11-07T06:38:25.042Z,8.39
2022-11-07T06:40:51.797Z,7.80
2022-11-07T06:43:26.817Z,8.19
2022-11-07T06:46:27.773Z,8.10
2022-11-07T06:49:14.927Z,8.46
2022-11-07T06:51:47.864Z,8.47
2022-11-07T06:57:10.653Z,8.57
2022-11-07T06:59:37.473Z,8.46
2022-11-07T07:02:30.470Z,8.48
2022-11-07T07:05:01.326Z,9.03
2022-11-07T07:07:31.195Z,8.79
2022-11-07T07:09:57.974Z,8.69
2022-11-07T07:12:26.382Z,9.38
2022-11-07T07:14:52.923Z,9.58
2022-11-07T07:17:19.525Z,9.60
2022-11-07T07:19:46.145Z,9.47
2022-11-07T07:22:14.098Z,9.80
2022-11-07T07:24:40.722Z,10.13
2022-11-07T07:27:08.025Z,10.33
2022-11-07T07:29:34.777Z,10.33
2022-11-07T07:32:10.533Z,9.76
2022-11-07T07:34:37.554Z,9.63
2022-11-07T07:37:04.688Z,10.28
2022-11-07T07:39:31.559Z,9.73
2022-11-07T07:41:58.715Z,10.17
2022-11-07T07:44:25.401Z,10.26
2022-11-07T07:46:52.227Z,9.80
2022-11-07T07:49:18.967Z,10.34
2022-11-07T07:51:53.417Z,10.45
2022-11-07T07:54:20.197Z,9.84
2022-11-07T07:56:46.993Z,10.23
2022-11-07T07:59:13.887Z,9.75
2022-11-07T08:01:40.604Z,10.22
2022-11-07T08:04:07.679Z,10.13
2022-11-07T08:06:35.609Z,10.29
2022-11-07T08:09:02.389Z,10.34
2022-11-07T08:11:45.081Z,10.03
2022-11-07T08:14:14.510Z,10.61
2022-11-07T08:16:44.481Z,10.27
2022-11-07T08:19:18.022Z,11.11
2022-11-07T08:22:04.083Z,11.13
2022-11-07T08:25:28.902Z,10.83
2022-11-07T08:28:03.642Z,10.97
2022-11-07T08:30:31.958Z,11.32
2022-11-07T08:33:10.096Z,11.01
2022-11-07T08:35:47.598Z,11.31
2022-11-07T08:38:22.564Z,11.64
2022-11-07T08:40:53.135Z,10.93
2022-11-07T08:43:20.576Z,10.97
2022-11-07T08:45:54.059Z,11.48
2022-11-07T08:48:21.449Z,11.48
2022-11-07T08:51:01.579Z,11.60
2022-11-07T08:54:00.490Z,12.46
2022-11-07T08:56:35.887Z,12.26
2022-11-07T08:59:02.573Z,12.56
2022-11-07T09:02:15.046Z,12.67
2022-11-07T09:04:30.982Z,12.88
2022-11-07T09:06:57.685Z,12.89
2022-11-07T09:09:36.799Z,13.70
2022-11-07T09:12:06.298Z,13.35
2022-11-07T09:14:32.991Z,13.66
2022-11-07T09:16:59.715Z,13.71
2022-11-07T09:19:27.810Z,13.94
2022-11-07T09:22:00.074Z,14.42
2022-11-07T09:24:27.084Z,15.19
2022-11-07T09:26:56.843Z,15.20
2022-11-07T09:29:24.000Z,15.55
2022-11-07T09:31:51.528Z,15.46
2022-11-07T09:34:38.090Z,15.53
2022-11-07T09:37:05.409Z,15.92
2022-11-07T09:39:32.147Z,16.00
2022-11-07T09:45:04.816Z,15.93
2022-11-07T09:47:43.921Z,15.88
2022-11-07T09:50:18.219Z,15.68
2022-11-07T09:53:34.098Z,15.99
2022-11-07T09:56:05.681Z,15.94
2022-11-07T09:58:51.814Z,16.32
2022-11-07T10:01:33.342Z,16.32
2022-11-07T10:07:28.455Z,15.92
2022-11-07T10:11:11.075Z,16.57
2022-11-07T10:13:59.900Z,16.54
2022-11-07T10:16:44.733Z,16.28
2022-11-07T10:19:58.197Z,17.13
2022-11-07T10:23:18.649Z,17.13
2022-11-07T10:26:16.846Z,17.09
2022-11-07T10:29:12.181Z,17.12
2022-11-07T10:31:46.974Z,17.23
2022-11-07T10:34:26.549Z,16.72
2022-11-07T10:36:58.230Z,16.97
2022-11-07T10:40:09.587Z,16.70
2022-11-07T10:42:57.261Z,17.04
2022-11-07T10:45:28.260Z,16.97
2022-11-07T10:48:15.538Z,16.68
2022-11-07T10:50:58.895Z,17.43
2022-11-07T10:56:29.003Z,17.19
2022-11-07T10:59:19.929Z,16.39
2022-11-07T11:02:17.996Z,16.85
2022-11-07T11:16:43.045Z,17.60
2022-11-07T11:19:41.406Z,17.37
2022-11-07T11:22:16.876Z,17.38
2022-11-07T11:24:43.422Z,17.46
2022-11-07T11:27:21.311Z,17.36
2022-11-07T11:29:53.156Z,17.33
2022-11-07T11:32:32.829Z,17.29
2022-11-07T11:35:14.405Z,17.15
2022-11-07T11:37:43.791Z,17.32
2022-11-07T11:40:18.568Z,17.47
2022-11-07T11:42:53.840Z,17.59
2022-11-07T11:45:35.732Z,17.78
2022-11-07T11:48:10.685Z,17.85
2022-11-07T11:50:47.981Z,17.78
2022-11-07T11:53:22.576Z,17.82
2022-11-07T11:56:09.593Z,17.88
2022-11-07T11:58:58.379Z,18.01
2022-11-07T12:02:06.140Z,18.10
2022-11-07T12:04:50.826Z,17.96
2022-11-07T12:07:45.637Z,17.78
2022-11-07T12:10:25.602Z,17.69
2022-11-07T12:12:52.136Z,17.58
2022-11-07T12:15:31.176Z,17.45
2022-11-07T12:18:09.887Z,17.36
2022-11-07T12:21:10.226Z,17.23
2022-11-07T12:23:58.210Z,16.84
2022-11-07T12:26:34.099Z,17.00
2022-11-07T12:29:00.547Z,16.94
2022-11-07T12:31:27.068Z,16.99
2022-11-07T12:34:00.818Z,16.98
2022-11-07T12:36:53.680Z,17.07
2022-11-07T12:39:20.145Z,17.18
2022-11-07T12:41:46.610Z,17.32
2022-11-07T12:44:25.161Z,17.39
2022-11-07T12:46:58.082Z,17.34
2022-11-07T12:49:49.504Z,17.31
2022-11-07T12:52:59.889Z,17.16
2022-11-07T12:55:34.871Z,17.03
2022-11-07T12:58:04.020Z,16.83
2022-11-07T13:00:30.987Z,16.84
2022-11-07T13:03:42.643Z,16.83
2022-11-07T13:06:22.137Z,16.86
2022-11-07T13:09:13.279Z,16.79
2022-11-07T13:12:07.132Z,16.74
2022-11-07T13:14:38.876Z,16.67
2022-11-07T13:17:08.393Z,16.55
2022-11-07T13:19:37.287Z,16.43
2022-11-07T13:22:20.045Z,16.37
2022-11-07T13:24:53.296Z,16.30
2022-11-07T13:27:22.839Z,16.22
2022-11-07T13:29:49.516Z,16.25
2022-11-07T13:32:16.957Z,16.20
2022-11-07T13:34:49.738Z,16.26
2022-11-07T13:37:20.522Z,16.19
2022-11-07T13:39:51.063Z,16.22
2022-11-07T13:42:18.745Z,16.22
2022-11-07T13:44:52.961Z,16.20
2022-11-07T13:47:26.114Z,16.21
2022-11-07T13:49:57.035Z,16.12
2022-11-07T13:52:34.683Z,16.19
2022-11-07T13:55:09.089Z,16.18
2022-11-07T13:57:42.974Z,16.09
2022-11-07T14:00:19.436Z,16.05
2022-11-07T14:02:57.531Z,15.94
2022-11-07T14:05:27.162Z,15.92
2022-11-07T14:08:02.172Z,15.82
2022-11-07T14:10:39.236Z,15.73
2022-11-07T14:13:19.723Z,15.64
2022-11-07T14:15:49.153Z,15.63
2022-11-07T14:18:18.329Z,15.59
2022-11-07T14:20:50.363Z,15.46
2022-11-07T14:23:21.416Z,15.46
2022-11-07T14:25:58.312Z,15.39
2022-11-07T14:28:25.063Z,15.35
2022-11-07T14:30:52.801Z,15.29
2022-11-07T14:33:22.370Z,15.14
2022-11-07T14:35:51.613Z,15.16
2022-11-07T14:38:22.410Z,15.07
2022-11-07T14:40:50.248Z,15.02
2022-11-07T14:43:20.835Z,15.00
2022-11-07T14:46:11.423Z,14.88
2022-11-07T14:48:35.514Z,14.89
2022-11-07T14:51:02.873Z,14.86
2022-11-07T14:53:36.343Z,14.81
2022-11-07T14:56:08.734Z,14.78
2022-11-07T14:58:35.422Z,14.74
2022-11-07T15:01:08.020Z,14.72
2022-11-07T15:03:37.109Z,14.70
2022-11-07T15:06:04.394Z,14.65
2022-11-07T15:08:36.273Z,14.56
2022-11-07T15:11:07.583Z,14.61
2022-11-07T15:13:35.232Z,14.58
2022-11-07T15:16:05.802Z,14.47
2022-11-07T15:18:37.784Z,14.43
2022-11-07T15:21:04.970Z,14.32
2022-11-07T15:23:33.736Z,14.27
2022-11-07T15:26:06.675Z,14.18
2022-11-07T15:28:42.259Z,13.97
2022-11-07T15:31:21.971Z,14.01
2022-11-07T15:33:48.569Z,13.80
2022-11-07T15:36:15.858Z,13.85
2022-11-07T15:38:43.019Z,13.70
2022-11-07T15:41:11.396Z,13.68
2022-11-07T15:43:38.425Z,13.60
2022-11-07T15:46:21.046Z,13.51
2022-11-07T15:48:47.988Z,13.36
2022-11-07T15:51:14.689Z,13.32
2022-11-07T15:53:41.211Z,13.24
2022-11-07T15:56:11.747Z,13.11
2022-11-07T15:58:38.252Z,12.85
2022-11-07T16:01:04.841Z,12.99
2022-11-07T16:03:31.443Z,12.97
2022-11-07T16:06:02.767Z,12.88
2022-11-07T16:08:30.456Z,12.81
2022-11-07T16:11:00.991Z,12.79
2022-11-07T16:13:28.783Z,12.76
2022-11-07T16:16:00.258Z,12.66
2022-11-07T16:18:30.284Z,12.64
2022-11-07T16:25:38.754Z,12.42
2022-11-07T16:28:06.112Z,12.38
2022-11-07T16:30:33.721Z,12.35
2022-11-07T16:33:00.690Z,12.29
2022-11-07T16:35:27.241Z,12.29
2022-11-07T16:37:53.855Z,12.29
2022-11-07T16:40:20.428Z,12.26
2022-11-07T16:42:47.524Z,12.27
2022-11-07T16:45:16.417Z,12.27
2022-11-07T16:47:44.037Z,12.27
2022-11-07T16:50:13.946Z,12.25
2022-11-07T16:52:40.514Z,12.25
2022-11-07T16:55:07.671Z,12.11
2022-11-07T16:57:36.251Z,12.09
2022-11-07T17:00:04.500Z,12.18
2022-11-07T17:02:31.247Z,12.15
2022-11-07T17:04:58.066Z,12.12
2022-11-07T17:07:24.716Z,12.12
2022-11-07T17:09:51.275Z,12.08
2022-11-07T17:12:21.536Z,12.00
2022-11-07T17:14:48.754Z,11.92
2022-11-07T17:17:17.400Z,11.91
2022-11-07T17:19:44.502Z,11.93
2022-11-07T17:22:12.149Z,11.89
2022-11-07T17:24:38.944Z,11.88
2022-11-07T17:27:19.035Z,11.76
2022-11-07T17:29:45.529Z,11.82
2022-11-07T17:32:12.022Z,11.58
2022-11-07T17:34:39.037Z,11.75
2022-11-07T17:37:05.699Z,11.74
2022-11-07T17:39:32.175Z,11.73
2022-11-07T17:41:58.915Z,11.69
2022-11-07T17:44:25.409Z,11.54
2022-11-07T17:46:52.051Z,11.54
2022-11-07T17:49:19.539Z,11.59
2022-11-07T17:51:46.108Z,11.51
2022-11-07T17:54:13.891Z,11.48
2022-11-07T17:56:41.580Z,11.41
2022-11-07T17:59:13.225Z,11.43
2022-11-07T18:01:40.559Z,11.39
2022-11-07T18:04:09.428Z,11.34
2022-11-07T18:06:41.503Z,11.31
2022-11-07T18:09:11.661Z,11.29
2022-11-07T18:11:38.253Z,11.15
2022-11-07T18:14:05.070Z,11.18
2022-11-07T18:16:33.704Z,11.14
2022-11-07T18:19:01.472Z,11.10
2022-11-07T18:21:29.051Z,11.07
2022-11-07T18:23:56.397Z,11.03
2022-11-07T18:26:30.206Z,10.96
2022-11-07T18:29:00.655Z,10.93
2022-11-07T18:31:27.137Z,10.97
2022-11-07T18:33:58.687Z,10.79
2022-11-07T18:36:26.108Z,10.91
2022-11-07T18:38:52.715Z,10.91
2022-11-07T18:41:21.617Z,10.84
2022-11-07T18:43:48.872Z,10.91
2022-11-07T18:46:19.247Z,10.88
2022-11-07T18:48:46.525Z,10.82
2022-11-07T18:51:17.453Z,10.87
2022-11-07T18:53:44.727Z,10.78
2022-11-07T18:56:12.880Z,10.58
2022-11-07T18:58:41.456Z,10.54
2022-11-07T19:01:12.348Z,10.60
2022-11-07T19:03:40.477Z,10.43
2022-11-07T19:06:10.879Z,10.56
2022-11-07T19:08:39.577Z,10.43
2022-11-07T19:11:09.444Z,10.49
2022-11-07T19:13:37.489Z,10.41
2022-11-07T19:16:06.249Z,10.43
2022-11-07T19:18:33.188Z,10.44
2022-11-07T19:21:00.147Z,10.40
2022-11-07T19:23:26.696Z,10.39
2022-11-07T19:25:54.245Z,10.28
2022-11-07T19:28:21.019Z,10.30
2022-11-07T19:30:47.894Z,10.32
2022-11-07T19:33:15.911Z,10.30
2022-11-07T19:35:43.169Z,10.16
2022-11-07T19:38:12.549Z,10.13
2022-11-07T19:40:39.995Z,10.19
2022-11-07T19:43:09.407Z,10.19
2022-11-07T19:45:41.040Z,10.13
2022-11-07T19:48:07.837Z,10.15
2022-11-07T19:50:34.330Z,10.12
2022-11-07T19:53:00.848Z,10.10
2022-11-07T19:55:27.609Z,10.08
2022-11-07T19:57:54.065Z,9.93
2022-11-07T20:00:20.550Z,10.06
2022-11-07T20:02:47.817Z,9.97
2022-11-07T20:05:23.823Z,10.00
2022-11-07T20:08:04.787Z,9.97
2022-11-07T20:10:32.005Z,9.94
2022-11-07T20:12:58.522Z,9.93
2022-11-07T20:15:25.045Z,9.91
2022-11-07T20:17:51.587Z,9.90
2022-11-07T20:20:18.152Z,9.89
2022-11-07T20:22:49.256Z,9.86
2022-11-07T20:25:15.863Z,9.85
2022-11-07T20:27:42.652Z,9.81
2022-11-07T20:30:09.951Z,9.79
2022-11-07T20:32:36.745Z,9.66
2022-11-07T20:35:03.793Z,9.75
2022-11-07T20:37:30.488Z,9.72
2022-11-07T20:39:57.119Z,9.32
2022-11-07T20:42:23.653Z,9.62
2022-11-07T20:44:51.045Z,9.62
2022-11-07T20:47:18.046Z,9.60
2022-11-07T20:49:44.546Z,9.58
2022-11-07T20:52:11.177Z,9.56
2022-11-07T20:54:37.928Z,9.47
2022-11-07T20:57:04.877Z,9.51
2022-11-07T20:59:31.988Z,9.10
2022-11-07T21:02:02.994Z,9.34
2022-11-07T21:04:44.544Z,9.49
2022-11-07T21:07:19.624Z,9.46
2022-11-07T21:09:46.510Z,9.46
2022-11-07T21:12:13.265Z,9.43
2022-11-07T21:14:42.026Z,9.39
2022-11-07T21:17:09.339Z,9.32
2022-11-07T21:19:35.956Z,8.88
2022-11-07T21:22:02.455Z,9.23
2022-11-07T21:24:32.126Z,9.18
2022-11-07T21:26:58.996Z,9.10
2022-11-07T21:29:29.458Z,9.14
2022-11-07T21:31:57.082Z,9.11
2022-11-07T21:34:23.617Z,9.07
2022-11-07T21:36:50.286Z,9.03
2022-11-07T21:39:17.420Z,9.00
2022-11-07T21:41:44.141Z,8.97
2022-11-07T21:44:12.161Z,8.94
2022-11-07T21:46:38.825Z,8.92
2022-11-07T21:49:06.168Z,8.89
2022-11-07T21:51:34.607Z,8.85
2022-11-07T21:54:02.894Z,8.79
2022-11-07T21:56:39.428Z,8.77
2022-11-07T21:59:08.366Z,8.72
2022-11-07T22:01:37.149Z,8.72
2022-11-07T22:04:10.839Z,8.69
2022-11-07T22:06:41.663Z,8.55
2022-11-07T22:09:09.555Z,8.65
2022-11-07T22:11:36.879Z,8.62
2022-11-07T22:14:03.918Z,8.59
2022-11-07T22:16:31.638Z,8.58
2022-11-07T22:18:59.672Z,8.45
2022-11-07T22:21:26.415Z,8.44
2022-11-07T22:23:52.905Z,8.40
2022-11-07T22:26:21.880Z,8.30
2022-11-07T22:28:49.420Z,8.30
2022-11-07T22:31:22.802Z,8.19
2022-11-07T22:33:49.969Z,8.18
2022-11-07T22:36:17.281Z,8.11
2022-11-07T22:38:44.344Z,7.96
2022-11-07T22:41:15.326Z,8.08
2022-11-07T22:43:42.410Z,8.17
2022-11-07T22:46:12.568Z,8.15
2022-11-07T22:48:39.667Z,8.12
2022-11-07T22:51:23.151Z,8.10
2022-11-07T22:53:57.077Z,8.10
2022-11-07T22:56:23.909Z,8.10
2022-11-07T22:58:50.643Z,8.03
2022-11-07T23:01:25.779Z,8.04
2022-11-07T23:03:53.546Z,7.92
2022-11-07T23:06:20.701Z,8.02
2022-11-07T23:08:47.952Z,7.94
2022-11-07T23:11:46.568Z,7.95
2022-11-07T23:14:15.275Z,7.93
2022-11-07T23:16:48.226Z,7.88
2022-11-07T23:19:17.929Z,7.87
2022-11-07T23:21:44.446Z,7.76
2022-11-07T23:24:11.289Z,7.77
2022-11-07T23:26:38.405Z,7.75
2022-11-07T23:29:17.900Z,7.71
2022-11-07T23:31:46.890Z,7.68
2022-11-07T23:34:14.314Z,7.72
2022-11-07T23:36:43.842Z,7.64
2022-11-07T23:39:16.852Z,7.60
2022-11-07T23:41:43.984Z,7.64
2022-11-07T23:44:11.260Z,7.62
2022-11-07T23:46:56.786Z,7.62
2022-11-07T23:49:41.752Z,7.57
2022-11-07T23:52:08.315Z,7.58
2022-11-07T23:54:53.420Z,7.51
2022-11-07T23:57:20.360Z,7.36
